sensor_id;sensor_type;location;lat;lon;timestamp;pressure;altitude;pressure_sealevel;temperature;humidity
64679;BME280;51094;53.864;27.676;2023-02-16T00:00:32;100155.72;;;2.42;71.48
64679;BME280;51094;53.864;27.676;2023-02-16T00:02:59;100168.44;;;2.48;71.20
64679;BME280;51094;53.864;27.676;2023-02-16T00:05:28;100213.00;;;2.81;71.46
64679;BME280;51094;53.864;27.676;2023-02-16T00:07:56;100174.53;;;2.43;71.38
64679;BME280;51094;53.864;27.676;2023-02-16T00:10:25;100163.34;;;2.45;70.97
64679;BME280;51094;53.864;27.676;2023-02-16T00:12:53;100133.94;;;2.21;70.54
64679;BME280;51094;53.864;27.676;2023-02-16T00:15:39;100207.53;;;2.59;71.05
64679;BME280;51094;53.864;27.676;2023-02-16T00:18:15;100194.78;;;2.56;71.01
64679;BME280;51094;53.864;27.676;2023-02-16T00:20:43;100129.72;;;2.19;71.01
64679;BME280;51094;53.864;27.676;2023-02-16T00:23:10;100098.66;;;1.94;70.92
64679;BME280;51094;53.864;27.676;2023-02-16T00:25:37;100212.34;;;2.36;70.66
64679;BME280;51094;53.864;27.676;2023-02-16T00:28:09;100110.88;;;1.83;71.86
64679;BME280;51094;53.864;27.676;2023-02-16T00:30:38;100153.88;;;2.12;71.49
64679;BME280;51094;53.864;27.676;2023-02-16T00:33:17;100192.13;;;2.21;71.38
64679;BME280;51094;53.864;27.676;2023-02-16T00:35:44;100126.72;;;2.02;71.52
64679;BME280;51094;53.864;27.676;2023-02-16T00:38:13;100124.84;;;2.10;71.68
64679;BME280;51094;53.864;27.676;2023-02-16T00:40:41;100124.91;;;2.07;71.64
64679;BME280;51094;53.864;27.676;2023-02-16T00:43:25;99979.78;;;1.22;71.61
64679;BME280;51094;53.864;27.676;2023-02-16T00:45:54;100186.44;;;2.47;71.77
64679;BME280;51094;53.864;27.676;2023-02-16T00:48:23;100114.91;;;1.94;71.60
64679;BME280;51094;53.864;27.676;2023-02-16T00:50:52;100086.88;;;1.85;71.54
64679;BME280;51094;53.864;27.676;2023-02-16T00:53:18;100125.91;;;1.99;71.75
64679;BME280;51094;53.864;27.676;2023-02-16T00:55:45;100054.16;;;1.58;72.12
64679;BME280;51094;53.864;27.676;2023-02-16T00:58:21;100170.53;;;2.31;71.65
64679;BME280;51094;53.864;27.676;2023-02-16T01:00:52;100093.03;;;1.78;71.69
64679;BME280;51094;53.864;27.676;2023-02-16T01:03:23;100179.91;;;1.93;72.48
64679;BME280;51094;53.864;27.676;2023-02-16T01:05:51;100102.38;;;1.81;72.23
64679;BME280;51094;53.864;27.676;2023-02-16T01:08:38;100035.59;;;1.47;71.88
64679;BME280;51094;53.864;27.676;2023-02-16T01:11:23;100091.16;;;1.85;72.00
64679;BME280;51094;53.864;27.676;2023-02-16T01:13:52;100146.69;;;2.26;72.49
64679;BME280;51094;53.864;27.676;2023-02-16T01:16:26;100148.25;;;1.94;72.44
64679;BME280;51094;53.864;27.676;2023-02-16T01:18:53;100121.78;;;1.92;71.84
64679;BME280;51094;53.864;27.676;2023-02-16T01:21:20;100115.22;;;1.79;72.21
64679;BME280;51094;53.864;27.676;2023-02-16T01:23:51;100102.16;;;1.91;72.65
64679;BME280;51094;53.864;27.676;2023-02-16T01:26:18;100073.56;;;1.70;72.19
64679;BME280;51094;53.864;27.676;2023-02-16T01:28:46;100034.88;;;1.40;72.39
64679;BME280;51094;53.864;27.676;2023-02-16T01:31:15;100124.28;;;1.95;72.31
64679;BME280;51094;53.864;27.676;2023-02-16T01:33:43;100126.97;;;1.89;72.74
64679;BME280;51094;53.864;27.676;2023-02-16T01:36:24;100129.91;;;1.73;72.30
64679;BME280;51094;53.864;27.676;2023-02-16T01:38:52;100063.38;;;1.26;72.83
64679;BME280;51094;53.864;27.676;2023-02-16T01:44:03;100127.44;;;1.68;72.70
64679;BME280;51094;53.864;27.676;2023-02-16T01:46:37;100108.56;;;1.72;73.20
64679;BME280;51094;53.864;27.676;2023-02-16T01:49:11;100090.22;;;1.50;72.93
64679;BME280;51094;53.864;27.676;2023-02-16T01:57:19;100108.22;;;1.47;72.73
64679;BME280;51094;53.864;27.676;2023-02-16T02:02:16;100095.50;;;1.41;72.95
64679;BME280;51094;53.864;27.676;2023-02-16T02:04:51;100094.91;;;1.30;73.01
64679;BME280;51094;53.864;27.676;2023-02-16T02:10:49;100087.81;;;0.98;73.64
64679;BME280;51094;53.864;27.676;2023-02-16T02:13:40;100074.56;;;0.78;73.74
64679;BME280;51094;53.864;27.676;2023-02-16T02:16:10;100039.38;;;0.41;73.91
64679;BME280;51094;53.864;27.676;2023-02-16T02:18:37;99953.34;;;-0.14;74.14
64679;BME280;51094;53.864;27.676;2023-02-16T02:27:23;100073.66;;;0.29;74.42
64679;BME280;51094;53.864;27.676;2023-02-16T02:30:04;100071.44;;;0.08;75.35
64679;BME280;51094;53.864;27.676;2023-02-16T02:38:18;100063.22;;;-0.12;76.00
64679;BME280;51094;53.864;27.676;2023-02-16T02:46:18;100064.72;;;-0.59;77.47
64679;BME280;51094;53.864;27.676;2023-02-16T02:48:49;99874.81;;;-1.84;78.04
64679;BME280;51094;53.864;27.676;2023-02-16T02:51:17;99995.59;;;-1.14;78.52
64679;BME280;51094;53.864;27.676;2023-02-16T02:57:08;100065.88;;;-0.86;80.41
64679;BME280;51094;53.864;27.676;2023-02-16T03:00:00;100033.06;;;-1.18;79.50
64679;BME280;51094;53.864;27.676;2023-02-16T03:02:48;100026.31;;;-1.23;80.02
64679;BME280;51094;53.864;27.676;2023-02-16T03:05:18;99865.00;;;-2.19;80.15
64679;BME280;51094;53.864;27.676;2023-02-16T03:07:48;100047.22;;;-0.88;80.91
64679;BME280;51094;53.864;27.676;2023-02-16T03:10:25;100131.38;;;-0.82;80.76
64679;BME280;51094;53.864;27.676;2023-02-16T03:13:23;99870.66;;;-1.92;80.60
64679;BME280;51094;53.864;27.676;2023-02-16T03:15:51;100036.84;;;-0.77;80.75
64679;BME280;51094;53.864;27.676;2023-02-16T03:18:24;100038.34;;;-0.59;80.76
64679;BME280;51094;53.864;27.676;2023-02-16T03:21:12;100074.25;;;-0.73;80.35
64679;BME280;51094;53.864;27.676;2023-02-16T03:24:00;100065.56;;;-0.57;79.83
64679;BME280;51094;53.864;27.676;2023-02-16T03:26:47;100028.06;;;-0.55;79.75
64679;BME280;51094;53.864;27.676;2023-02-16T03:29:36;99810.56;;;-2.15;79.17
64679;BME280;51094;53.864;27.676;2023-02-16T03:32:04;99825.13;;;-1.51;80.15
64679;BME280;51094;53.864;27.676;2023-02-16T03:34:32;100016.50;;;-0.22;79.89
64679;BME280;51094;53.864;27.676;2023-02-16T03:37:00;100017.38;;;-0.23;79.34
64679;BME280;51094;53.864;27.676;2023-02-16T03:39:28;100016.38;;;-0.13;79.20
64679;BME280;51094;53.864;27.676;2023-02-16T03:41:57;99937.81;;;-0.55;79.47
64679;BME280;51094;53.864;27.676;2023-02-16T03:44:24;99985.13;;;-0.31;78.67
64679;BME280;51094;53.864;27.676;2023-02-16T03:46:51;99973.34;;;-0.42;78.56
64679;BME280;51094;53.864;27.676;2023-02-16T03:49:19;99999.63;;;-0.32;78.60
64679;BME280;51094;53.864;27.676;2023-02-16T03:51:46;99768.66;;;-1.88;78.27
64679;BME280;51094;53.864;27.676;2023-02-16T03:54:13;99949.53;;;-1.02;79.38
64679;BME280;51094;53.864;27.676;2023-02-16T03:56:40;99993.66;;;-0.92;79.98
64679;BME280;51094;53.864;27.676;2023-02-16T03:59:07;99954.88;;;-1.23;80.25
64679;BME280;51094;53.864;27.676;2023-02-16T04:01:34;99980.28;;;-1.14;81.12
64679;BME280;51094;53.864;27.676;2023-02-16T04:04:01;99929.78;;;-1.60;81.13
64679;BME280;51094;53.864;27.676;2023-02-16T04:06:28;99932.66;;;-1.14;81.62
64679;BME280;51094;53.864;27.676;2023-02-16T04:08:54;99920.06;;;-1.27;80.89
64679;BME280;51094;53.864;27.676;2023-02-16T04:11:21;99791.34;;;-1.70;81.05
64679;BME280;51094;53.864;27.676;2023-02-16T04:14:07;99954.91;;;-0.60;80.77
64679;BME280;51094;53.864;27.676;2023-02-16T04:16:33;99952.34;;;-0.59;81.01
64679;BME280;51094;53.864;27.676;2023-02-16T04:19:00;99869.47;;;-0.98;81.17
64679;BME280;51094;53.864;27.676;2023-02-16T04:21:27;99955.47;;;-0.42;81.49
64679;BME280;51094;53.864;27.676;2023-02-16T04:23:54;99951.16;;;-0.40;81.04
64679;BME280;51094;53.864;27.676;2023-02-16T04:26:21;99946.94;;;-0.42;81.41
64679;BME280;51094;53.864;27.676;2023-02-16T04:28:48;99948.09;;;-0.60;81.10
64679;BME280;51094;53.864;27.676;2023-02-16T04:31:15;99813.44;;;-1.69;81.18
64679;BME280;51094;53.864;27.676;2023-02-16T04:33:42;99827.16;;;-1.77;82.64
64679;BME280;51094;53.864;27.676;2023-02-16T04:36:09;99964.09;;;-1.10;82.27
64679;BME280;51094;53.864;27.676;2023-02-16T04:38:36;99935.97;;;-1.07;83.33
64679;BME280;51094;53.864;27.676;2023-02-16T04:41:02;99944.47;;;-1.07;83.29
64679;BME280;51094;53.864;27.676;2023-02-16T04:43:30;99866.00;;;-1.58;83.27
64679;BME280;51094;53.864;27.676;2023-02-16T04:45:58;99940.19;;;-1.03;83.73
64679;BME280;51094;53.864;27.676;2023-02-16T04:48:25;99941.88;;;-1.02;83.76
64679;BME280;51094;53.864;27.676;2023-02-16T04:50:52;99940.25;;;-1.11;83.62
64679;BME280;51094;53.864;27.676;2023-02-16T04:53:19;99942.94;;;-1.21;83.81
64679;BME280;51094;53.864;27.676;2023-02-16T04:55:47;99937.00;;;-1.23;84.39
64679;BME280;51094;53.864;27.676;2023-02-16T04:58:15;99874.34;;;-1.44;84.32
64679;BME280;51094;53.864;27.676;2023-02-16T05:00:42;99934.09;;;-0.93;84.08
64679;BME280;51094;53.864;27.676;2023-02-16T05:03:09;99929.66;;;-0.82;84.37
64679;BME280;51094;53.864;27.676;2023-02-16T05:05:36;99929.63;;;-0.80;84.52
64679;BME280;51094;53.864;27.676;2023-02-16T05:08:03;99931.56;;;-0.94;83.43
64679;BME280;51094;53.864;27.676;2023-02-16T05:10:30;99930.94;;;-1.13;84.27
64679;BME280;51094;53.864;27.676;2023-02-16T05:12:57;99884.59;;;-1.47;84.15
64679;BME280;51094;53.864;27.676;2023-02-16T05:15:42;99924.28;;;-1.25;84.13
64679;BME280;51094;53.864;27.676;2023-02-16T05:18:10;99937.19;;;-1.36;84.50
64679;BME280;51094;53.864;27.676;2023-02-16T05:20:37;99902.56;;;-1.58;85.00
64679;BME280;51094;53.864;27.676;2023-02-16T05:23:22;99810.66;;;-2.19;84.45
64679;BME280;51094;53.864;27.676;2023-02-16T05:25:49;99825.13;;;-2.24;84.62
64679;BME280;51094;53.864;27.676;2023-02-16T05:28:16;99926.59;;;-1.77;84.83
64679;BME280;51094;53.864;27.676;2023-02-16T05:30:43;99820.25;;;-2.47;85.17
64679;BME280;51094;53.864;27.676;2023-02-16T05:33:10;99852.31;;;-2.26;85.12
64679;BME280;51094;53.864;27.676;2023-02-16T05:35:37;99920.72;;;-1.85;85.29
64679;BME280;51094;53.864;27.676;2023-02-16T05:38:04;99910.44;;;-1.78;85.32
64679;BME280;51094;53.864;27.676;2023-02-16T05:40:30;99879.13;;;-1.90;85.63
64679;BME280;51094;53.864;27.676;2023-02-16T05:42:57;99908.41;;;-1.47;85.56
64679;BME280;51094;53.864;27.676;2023-02-16T05:45:24;99864.38;;;-1.64;85.10
64679;BME280;51094;53.864;27.676;2023-02-16T05:47:51;99909.97;;;-1.37;85.00
64679;BME280;51094;53.864;27.676;2023-02-16T05:50:18;99903.25;;;-1.44;84.54
64679;BME280;51094;53.864;27.676;2023-02-16T05:52:45;99680.56;;;-2.84;84.22
64679;BME280;51094;53.864;27.676;2023-02-16T05:55:12;99842.56;;;-1.86;84.66
64679;BME280;51094;53.864;27.676;2023-02-16T05:57:39;99838.06;;;-1.66;84.67
64679;BME280;51094;53.864;27.676;2023-02-16T06:00:07;99725.00;;;-2.31;84.47
64679;BME280;51094;53.864;27.676;2023-02-16T06:02:34;99600.22;;;-3.05;84.39
64679;BME280;51094;53.864;27.676;2023-02-16T06:05:01;99734.00;;;-2.04;84.43
64679;BME280;51094;53.864;27.676;2023-02-16T06:07:28;99900.22;;;-1.06;84.22
64679;BME280;51094;53.864;27.676;2023-02-16T06:09:55;99782.28;;;-1.90;82.97
64679;BME280;51094;53.864;27.676;2023-02-16T06:12:21;99850.59;;;-1.48;84.00
64679;BME280;51094;53.864;27.676;2023-02-16T06:14:48;99800.00;;;-1.81;84.04
64679;BME280;51094;53.864;27.676;2023-02-16T06:17:15;99880.88;;;-1.23;83.41
64679;BME280;51094;53.864;27.676;2023-02-16T06:19:42;99876.56;;;-1.18;83.87
64679;BME280;51094;53.864;27.676;2023-02-16T06:22:09;99599.25;;;-2.94;83.35
64679;BME280;51094;53.864;27.676;2023-02-16T06:24:36;99839.66;;;-1.57;83.46
64679;BME280;51094;53.864;27.676;2023-02-16T06:27:03;99898.06;;;-1.35;84.00
64679;BME280;51094;53.864;27.676;2023-02-16T06:29:30;99814.44;;;-1.80;84.11
64679;BME280;51094;53.864;27.676;2023-02-16T06:31:57;99876.84;;;-1.40;83.95
64679;BME280;51094;53.864;27.676;2023-02-16T06:34:25;99743.28;;;-1.98;84.24
64679;BME280;51094;53.864;27.676;2023-02-16T06:36:51;99743.28;;;-1.98;83.62
64679;BME280;51094;53.864;27.676;2023-02-16T06:39:18;99864.78;;;-1.28;83.36
64679;BME280;51094;53.864;27.676;2023-02-16T06:41:45;99832.09;;;-1.65;83.40
64679;BME280;51094;53.864;27.676;2023-02-16T06:44:14;99818.47;;;-1.62;84.16
64679;BME280;51094;53.864;27.676;2023-02-16T06:46:43;99832.66;;;-1.42;84.41
64679;BME280;51094;53.864;27.676;2023-02-16T06:49:16;99850.25;;;-1.23;84.34
64679;BME280;51094;53.864;27.676;2023-02-16T06:51:44;99844.94;;;-1.07;84.59
64679;BME280;51094;53.864;27.676;2023-02-16T06:54:11;99698.09;;;-1.84;84.22
64679;BME280;51094;53.864;27.676;2023-02-16T06:56:39;99799.22;;;-1.23;83.72
64679;BME280;51094;53.864;27.676;2023-02-16T06:59:06;99754.47;;;-1.44;84.09
64679;BME280;51094;53.864;27.676;2023-02-16T07:01:33;99603.66;;;-2.37;83.49
64679;BME280;51094;53.864;27.676;2023-02-16T07:04:00;99831.03;;;-0.87;83.75
64679;BME280;51094;53.864;27.676;2023-02-16T07:06:27;99833.47;;;-0.81;83.70
64679;BME280;51094;53.864;27.676;2023-02-16T07:08:54;99839.34;;;-0.76;83.34
64679;BME280;51094;53.864;27.676;2023-02-16T07:11:22;99773.31;;;-1.56;82.25
64679;BME280;51094;53.864;27.676;2023-02-16T07:13:49;99748.03;;;-1.73;83.56
64679;BME280;51094;53.864;27.676;2023-02-16T07:16:16;99717.06;;;-2.08;83.64
64679;BME280;51094;53.864;27.676;2023-02-16T07:18:43;99818.06;;;-1.30;84.43
64679;BME280;51094;53.864;27.676;2023-02-16T07:21:12;99836.59;;;-1.19;85.00
64679;BME280;51094;53.864;27.676;2023-02-16T07:23:39;99817.81;;;-1.14;84.49
64679;BME280;51094;53.864;27.676;2023-02-16T07:26:06;99861.69;;;-0.87;85.31
64679;BME280;51094;53.864;27.676;2023-02-16T07:28:33;99796.31;;;-0.99;84.75
64679;BME280;51094;53.864;27.676;2023-02-16T07:31:12;99824.81;;;-0.73;84.66
64679;BME280;51094;53.864;27.676;2023-02-16T07:33:40;99563.59;;;-2.24;84.33
64679;BME280;51094;53.864;27.676;2023-02-16T07:36:07;99816.13;;;-0.61;84.33
64679;BME280;51094;53.864;27.676;2023-02-16T07:38:35;99716.47;;;-1.07;84.33
64679;BME280;51094;53.864;27.676;2023-02-16T07:41:03;99704.56;;;-1.08;83.81
64679;BME280;51094;53.864;27.676;2023-02-16T07:43:37;99313.41;;;-4.24;83.21
64679;BME280;51094;53.864;27.676;2023-02-16T07:46:04;99808.88;;;-0.36;83.19
64679;BME280;51094;53.864;27.676;2023-02-16T07:48:31;99807.22;;;-0.39;82.58
64679;BME280;51094;53.864;27.676;2023-02-16T07:50:59;99803.22;;;-0.53;82.40
64679;BME280;51094;53.864;27.676;2023-02-16T07:53:26;99701.06;;;-1.55;81.71
64679;BME280;51094;53.864;27.676;2023-02-16T07:55:53;99537.41;;;-2.33;82.42
64679;BME280;51094;53.864;27.676;2023-02-16T07:58:20;99693.66;;;-1.18;82.94
64679;BME280;51094;53.864;27.676;2023-02-16T08:01:05;99549.56;;;-1.95;82.69
64679;BME280;51094;53.864;27.676;2023-02-16T08:03:32;99786.75;;;-0.37;82.97
64679;BME280;51094;53.864;27.676;2023-02-16T08:06:00;99618.38;;;-1.42;82.12
64679;BME280;51094;53.864;27.676;2023-02-16T08:08:27;99506.44;;;-2.09;81.69
64679;BME280;51094;53.864;27.676;2023-02-16T08:10:54;99704.13;;;-0.82;81.68
64679;BME280;51094;53.864;27.676;2023-02-16T08:13:21;99735.88;;;-0.48;81.79
64679;BME280;51094;53.864;27.676;2023-02-16T08:15:48;99652.56;;;-1.01;81.40
64679;BME280;51094;53.864;27.676;2023-02-16T08:18:15;99597.84;;;-1.32;80.73
64679;BME280;51094;53.864;27.676;2023-02-16T08:20:42;99771.34;;;-0.32;80.57
64679;BME280;51094;53.864;27.676;2023-02-16T08:23:29;99773.16;;;-0.39;81.23
64679;BME280;51094;53.864;27.676;2023-02-16T08:25:55;99560.06;;;-1.63;81.00
64679;BME280;51094;53.864;27.676;2023-02-16T08:28:25;99768.81;;;-0.34;81.33
64679;BME280;51094;53.864;27.676;2023-02-16T08:30:54;99765.84;;;-0.13;81.62
64679;BME280;51094;53.864;27.676;2023-02-16T08:33:24;99633.72;;;-0.94;80.68
64679;BME280;51094;53.864;27.676;2023-02-16T08:35:51;99559.00;;;-1.50;80.63
64679;BME280;51094;53.864;27.676;2023-02-16T08:38:18;99765.84;;;-0.13;80.99
64679;BME280;51094;53.864;27.676;2023-02-16T08:40:49;99673.19;;;-0.65;80.60
64679;BME280;51094;53.864;27.676;2023-02-16T08:43:19;99721.25;;;-0.41;80.29
64679;BME280;51094;53.864;27.676;2023-02-16T08:45:46;99558.88;;;-1.42;80.29
64679;BME280;51094;53.864;27.676;2023-02-16T08:48:14;99696.09;;;-0.62;80.58
64679;BME280;51094;53.864;27.676;2023-02-16T08:50:46;99658.03;;;-1.24;81.02
64679;BME280;51094;53.864;27.676;2023-02-16T08:53:22;99760.72;;;-0.57;81.51
64679;BME280;51094;53.864;27.676;2023-02-16T08:55:56;99744.78;;;-0.72;81.61
64679;BME280;51094;53.864;27.676;2023-02-16T08:58:23;99671.41;;;-1.08;82.71
64679;BME280;51094;53.864;27.676;2023-02-16T09:00:50;99693.16;;;-0.87;82.65
64679;BME280;51094;53.864;27.676;2023-02-16T09:03:17;99730.78;;;-0.49;83.32
64679;BME280;51094;53.864;27.676;2023-02-16T09:05:46;99632.84;;;-0.93;83.04
64679;BME280;51094;53.864;27.676;2023-02-16T09:08:14;99670.50;;;-0.59;82.72
64679;BME280;51094;53.864;27.676;2023-02-16T09:10:42;99559.38;;;-1.23;82.22
64679;BME280;51094;53.864;27.676;2023-02-16T09:13:09;99563.34;;;-1.07;82.59
64679;BME280;51094;53.864;27.676;2023-02-16T09:15:40;99700.59;;;-0.30;82.10
64679;BME280;51094;53.864;27.676;2023-02-16T09:18:10;99721.13;;;0.07;82.09
64679;BME280;51094;53.864;27.676;2023-02-16T09:20:42;99727.84;;;0.12;81.80
64679;BME280;51094;53.864;27.676;2023-02-16T09:23:12;99400.69;;;-1.84;81.57
64679;BME280;51094;53.864;27.676;2023-02-16T09:25:39;99631.91;;;-0.44;81.33
64679;BME280;51094;53.864;27.676;2023-02-16T09:28:07;99722.75;;;0.11;81.00
64679;BME280;51094;53.864;27.676;2023-02-16T09:30:37;99720.38;;;0.02;81.28
64679;BME280;51094;53.864;27.676;2023-02-16T09:33:05;99717.78;;;0.05;81.16
64679;BME280;51094;53.864;27.676;2023-02-16T09:35:32;99722.94;;;0.02;81.86
64679;BME280;51094;53.864;27.676;2023-02-16T09:37:58;99726.31;;;0.04;81.81
64679;BME280;51094;53.864;27.676;2023-02-16T09:40:25;99708.41;;;0.04;81.67
64679;BME280;51094;53.864;27.676;2023-02-16T09:43:07;99708.47;;;0.00;81.58
64679;BME280;51094;53.864;27.676;2023-02-16T09:45:42;99613.50;;;-0.61;81.60
64679;BME280;51094;53.864;27.676;2023-02-16T09:48:21;99459.41;;;-1.42;81.90
64679;BME280;51094;53.864;27.676;2023-02-16T09:50:51;99700.56;;;0.13;81.62
64679;BME280;51094;53.864;27.676;2023-02-16T09:53:27;99496.03;;;-1.02;81.54
64679;BME280;51094;53.864;27.676;2023-02-16T09:56:20;99674.03;;;0.17;81.90
64679;BME280;51094;53.864;27.676;2023-02-16T09:58:57;99452.13;;;-1.19;81.71
64679;BME280;51094;53.864;27.676;2023-02-16T10:01:44;99623.19;;;0.03;81.19
64679;BME280;51094;53.864;27.676;2023-02-16T10:07:06;99596.13;;;-0.44;81.66
64679;BME280;51094;53.864;27.676;2023-02-16T10:09:41;99539.28;;;-0.54;82.22
64679;BME280;51094;53.864;27.676;2023-02-16T10:12:14;99662.53;;;0.36;82.03
64679;BME280;51094;53.864;27.676;2023-02-16T10:15:12;99654.50;;;0.51;82.20
64679;BME280;51094;53.864;27.676;2023-02-16T10:17:44;99656.41;;;0.43;81.62
64679;BME280;51094;53.864;27.676;2023-02-16T10:20:20;99660.00;;;0.35;81.82
64679;BME280;51094;53.864;27.676;2023-02-16T10:22:59;99643.09;;;0.29;82.09
64679;BME280;51094;53.864;27.676;2023-02-16T10:30:52;99639.88;;;0.56;82.75
64679;BME280;51094;53.864;27.676;2023-02-16T10:35:55;99626.03;;;0.63;81.93
64679;BME280;51094;53.864;27.676;2023-02-16T10:38:33;99629.06;;;0.79;82.74
64679;BME280;51094;53.864;27.676;2023-02-16T10:41:32;99615.59;;;0.73;81.79
64679;BME280;51094;53.864;27.676;2023-02-16T10:44:34;99619.59;;;0.83;82.13
64679;BME280;51094;53.864;27.676;2023-02-16T10:46:57;99462.22;;;0.00;82.15
64679;BME280;51094;53.864;27.676;2023-02-16T10:49:25;99615.03;;;0.94;81.23
64679;BME280;51094;53.864;27.676;2023-02-16T10:51:55;99617.03;;;0.83;81.35
64679;BME280;51094;53.864;27.676;2023-02-16T10:54:27;99641.13;;;0.76;80.87
64679;BME280;51094;53.864;27.676;2023-02-16T10:56:58;99605.31;;;0.74;81.42
64679;BME280;51094;53.864;27.676;2023-02-16T11:02:02;99600.47;;;0.63;81.44
64679;BME280;51094;53.864;27.676;2023-02-16T11:04:40;99594.13;;;0.78;81.25
64679;BME280;51094;53.864;27.676;2023-02-16T11:07:10;99600.16;;;0.76;80.53
64679;BME280;51094;53.864;27.676;2023-02-16T11:09:39;99639.50;;;0.72;80.94
64679;BME280;51094;53.864;27.676;2023-02-16T11:12:23;99619.25;;;0.62;81.81
64679;BME280;51094;53.864;27.676;2023-02-16T11:14:57;99619.56;;;0.84;81.11
64679;BME280;51094;53.864;27.676;2023-02-16T11:17:25;99440.75;;;0.06;81.12
64679;BME280;51094;53.864;27.676;2023-02-16T11:19:55;99573.63;;;1.11;80.19
64679;BME280;51094;53.864;27.676;2023-02-16T11:22:36;99568.53;;;1.09;80.31
64679;BME280;51094;53.864;27.676;2023-02-16T11:25:23;99419.00;;;0.23;79.96
64679;BME280;51094;53.864;27.676;2023-02-16T11:27:59;99571.78;;;1.16;80.17
64679;BME280;51094;53.864;27.676;2023-02-16T11:30:36;99527.84;;;0.98;80.25
64679;BME280;51094;53.864;27.676;2023-02-16T11:33:21;99563.00;;;1.24;79.15
64679;BME280;51094;53.864;27.676;2023-02-16T11:35:49;99447.81;;;0.61;79.54
64679;BME280;51094;53.864;27.676;2023-02-16T11:40:56;99556.88;;;1.30;79.07
64679;BME280;51094;53.864;27.676;2023-02-16T11:43:30;99424.00;;;0.28;78.28
64679;BME280;51094;53.864;27.676;2023-02-16T11:46:03;99585.88;;;0.99;79.27
64679;BME280;51094;53.864;27.676;2023-02-16T11:48:32;99407.84;;;-0.07;78.88
64679;BME280;51094;53.864;27.676;2023-02-16T11:51:05;99539.31;;;0.85;79.09
64679;BME280;51094;53.864;27.676;2023-02-16T11:53:34;99540.25;;;0.83;79.29
64679;BME280;51094;53.864;27.676;2023-02-16T11:59:18;99355.22;;;-0.48;79.68
64679;BME280;51094;53.864;27.676;2023-02-16T12:04:53;99533.50;;;0.46;79.40
64679;BME280;51094;53.864;27.676;2023-02-16T12:07:41;99433.78;;;-0.22;80.68
64679;BME280;51094;53.864;27.676;2023-02-16T12:10:20;99496.44;;;-0.06;81.00
64679;BME280;51094;53.864;27.676;2023-02-16T12:15:45;99522.22;;;0.53;81.81
64679;BME280;51094;53.864;27.676;2023-02-16T12:23:51;99516.16;;;0.57;80.59
64679;BME280;51094;53.864;27.676;2023-02-16T12:26:39;99355.72;;;-0.69;80.14
64679;BME280;51094;53.864;27.676;2023-02-16T12:40:29;99485.41;;;0.59;80.54
64679;BME280;51094;53.864;27.676;2023-02-16T12:45:39;99479.72;;;0.80;80.89
64679;BME280;51094;53.864;27.676;2023-02-16T12:50:47;99416.03;;;0.39;79.75
64679;BME280;51094;53.864;27.676;2023-02-16T12:56:27;99477.09;;;0.83;80.09
64679;BME280;51094;53.864;27.676;2023-02-16T12:59:14;99477.28;;;0.76;80.00
64679;BME280;51094;53.864;27.676;2023-02-16T13:01:43;99373.38;;;-0.24;78.81
64679;BME280;51094;53.864;27.676;2023-02-16T13:04:55;99467.84;;;0.45;79.54
64679;BME280;51094;53.864;27.676;2023-02-16T13:07:49;99412.81;;;-0.01;79.82
64679;BME280;51094;53.864;27.676;2023-02-16T13:12:54;99424.38;;;0.13;80.00
64679;BME280;51094;53.864;27.676;2023-02-16T13:15:36;99459.47;;;0.42;81.10
64679;BME280;51094;53.864;27.676;2023-02-16T13:18:25;99467.38;;;0.63;81.04
64679;BME280;51094;53.864;27.676;2023-02-16T13:21:03;99414.72;;;0.24;79.96
64679;BME280;51094;53.864;27.676;2023-02-16T13:34:52;99455.72;;;0.53;81.29
64679;BME280;51094;53.864;27.676;2023-02-16T13:40:12;99444.06;;;0.43;81.79
64679;BME280;51094;53.864;27.676;2023-02-16T13:45:33;99407.88;;;0.24;81.74
64679;BME280;51094;53.864;27.676;2023-02-16T13:48:13;99340.03;;;-0.20;81.17
64679;BME280;51094;53.864;27.676;2023-02-16T13:50:42;99452.69;;;0.39;81.95
64679;BME280;51094;53.864;27.676;2023-02-16T13:53:17;99446.84;;;0.34;81.77
64679;BME280;51094;53.864;27.676;2023-02-16T13:55:46;99440.94;;;0.32;82.60
64679;BME280;51094;53.864;27.676;2023-02-16T13:58:27;99432.56;;;0.27;82.29
64679;BME280;51094;53.864;27.676;2023-02-16T14:00:54;99444.63;;;0.22;82.98
64679;BME280;51094;53.864;27.676;2023-02-16T14:05:50;99398.94;;;0.08;83.02
64679;BME280;51094;53.864;27.676;2023-02-16T14:08:21;99435.66;;;0.38;83.39
64679;BME280;51094;53.864;27.676;2023-02-16T14:13:24;99443.41;;;0.35;82.62
64679;BME280;51094;53.864;27.676;2023-02-16T14:15:55;99332.75;;;-0.35;82.79
64679;BME280;51094;53.864;27.676;2023-02-16T14:18:29;99440.78;;;0.38;83.64
64679;BME280;51094;53.864;27.676;2023-02-16T14:21:02;99434.63;;;0.13;83.19
64679;BME280;51094;53.864;27.676;2023-02-16T14:23:32;99446.91;;;0.32;83.32
64679;BME280;51094;53.864;27.676;2023-02-16T14:26:04;99412.31;;;0.18;83.69
64679;BME280;51094;53.864;27.676;2023-02-16T14:31:10;99406.88;;;0.30;83.41
64679;BME280;51094;53.864;27.676;2023-02-16T14:36:21;99368.41;;;0.02;83.03
64679;BME280;51094;53.864;27.676;2023-02-16T14:38:53;99428.91;;;0.36;83.18
64679;BME280;51094;53.864;27.676;2023-02-16T14:41:34;99426.28;;;0.39;83.53
64679;BME280;51094;53.864;27.676;2023-02-16T14:52:47;99432.91;;;0.77;82.71
64679;BME280;51094;53.864;27.676;2023-02-16T14:58:35;99435.47;;;0.77;81.47
64679;BME280;51094;53.864;27.676;2023-02-16T15:01:10;99429.00;;;0.63;81.58
64679;BME280;51094;53.864;27.676;2023-02-16T15:03:41;99433.41;;;0.58;81.54
64679;BME280;51094;53.864;27.676;2023-02-16T15:06:33;99443.47;;;0.64;81.92
64679;BME280;51094;53.864;27.676;2023-02-16T15:09:05;99405.78;;;0.40;81.63
64679;BME280;51094;53.864;27.676;2023-02-16T15:11:51;99237.94;;;-0.24;81.39
64679;BME280;51094;53.864;27.676;2023-02-16T15:14:43;99436.59;;;0.96;81.38
64679;BME280;51094;53.864;27.676;2023-02-16T15:19:46;99401.81;;;0.89;80.07
64679;BME280;51094;53.864;27.676;2023-02-16T15:22:20;99295.31;;;0.26;81.02
64679;BME280;51094;53.864;27.676;2023-02-16T15:25:06;99370.72;;;0.73;80.12